Time;durP1;ratioP1;P1;durP2;ratioP2;P2;SDS_P1;SDS_P2;PMS_P1;PMS_P2;Temp;Humidity;BMP_temperature;BMP_pressure;BME280_temperature;BME280_humidity;BME280_pressure;Samples;Min_cycle;Max_cycle;Signal;HPM_P1;HPM_P2
2023/03/24 00:01:09;;;;;;;9.83;6.30;;;11.00;99.90;;;;;;4957183;28;21181;-72
2023/03/24 00:03:38;;;;;;;6.13;5.63;;;11.00;99.90;;;;;;4959217;28;20485;-72
2023/03/24 00:06:08;;;;;;;7.60;6.70;;;11.00;99.90;;;;;;4963616;28;20970;-72
2023/03/24 00:08:37;;;;;;;6.43;5.83;;;11.00;99.90;;;;;;4961272;28;20573;-71
2023/03/24 00:11:08;;;;;;;6.53;5.93;;;11.00;99.90;;;;;;4962239;28;21021;-71
2023/03/24 00:13:37;;;;;;;6.27;5.70;;;11.00;99.90;;;;;;4956624;28;20839;-70
2023/03/24 00:16:06;;;;;;;6.77;4.97;;;11.00;99.90;;;;;;4960712;28;20501;-69
2023/03/24 00:18:38;;;;;;;5.90;5.40;;;11.10;99.90;;;;;;4951664;28;20480;-71
2023/03/24 00:21:09;;;;;;;6.60;5.67;;;11.10;99.90;;;;;;4948348;28;20488;-70
2023/03/24 00:23:41;;;;;;;5.87;5.30;;;11.00;99.90;;;;;;4953673;28;20497;-71
2023/03/24 00:26:14;;;;;;;5.00;4.50;;;11.00;99.90;;;;;;4964614;28;20469;-70
2023/03/24 00:28:44;;;;;;;5.40;5.00;;;11.10;99.90;;;;;;4952786;28;20516;-70
2023/03/24 00:31:14;;;;;;;5.20;4.70;;;11.00;99.90;;;;;;4954225;28;20843;-69
2023/03/24 00:33:49;;;;;;;6.10;4.70;;;11.00;99.90;;;;;;4958377;28;20778;-70
2023/03/24 00:36:19;;;;;;;5.97;5.20;;;11.00;99.90;;;;;;4967899;28;21124;-70
2023/03/24 00:38:48;;;;;;;6.60;4.13;;;11.00;99.90;;;;;;4961613;28;20489;-71
2023/03/24 00:41:18;;;;;;;5.33;4.47;;;11.00;99.90;;;;;;4967077;28;20479;-71
2023/03/24 00:43:47;;;;;;;4.80;4.23;;;11.00;99.90;;;;;;4960193;28;20492;-70
2023/03/24 00:46:27;;;;;;;4.47;4.10;;;11.00;99.90;;;;;;4954486;28;20482;-71
2023/03/24 00:49:02;;;;;;;4.93;4.43;;;11.00;99.90;;;;;;4957068;28;20468;-70
2023/03/24 00:51:32;;;;;;;7.17;4.03;;;11.00;99.90;;;;;;4961014;28;20683;-69
2023/03/24 00:54:00;;;;;;;5.00;4.00;;;11.00;99.90;;;;;;4965630;28;21647;-71
2023/03/24 00:56:31;;;;;;;4.83;4.30;;;11.00;99.90;;;;;;4957992;28;21686;-71
2023/03/24 00:59:01;;;;;;;4.07;3.43;;;11.00;99.90;;;;;;4956370;28;20531;-70
2023/03/24 01:01:33;;;;;;;5.10;4.13;;;11.00;99.90;;;;;;4958116;28;20484;-71
2023/03/24 01:04:05;;;;;;;4.20;3.40;;;11.00;99.90;;;;;;4942357;28;20581;-70
2023/03/24 01:06:36;;;;;;;3.70;3.40;;;11.00;99.90;;;;;;4934528;28;21837;-72
2023/03/24 01:09:05;;;;;;;4.33;3.93;;;11.00;99.90;;;;;;4930628;28;22799;-70
2023/03/24 01:11:37;;;;;;;5.13;3.70;;;11.00;99.90;;;;;;4928595;28;20479;-70
2023/03/24 01:14:06;;;;;;;5.00;3.00;;;11.00;99.90;;;;;;4953037;28;20547;-70
2023/03/24 01:16:34;;;;;;;5.87;3.83;;;11.00;99.90;;;;;;4960817;28;21151;-71
2023/03/24 01:19:05;;;;;;;4.87;3.93;;;10.90;99.90;;;;;;4952012;28;20485;-70
2023/03/24 01:21:34;;;;;;;4.50;3.50;;;10.90;99.90;;;;;;4955099;28;20480;-73
2023/03/24 01:24:03;;;;;;;4.80;4.30;;;10.90;99.90;;;;;;4943171;28;20864;-69
2023/03/24 01:26:32;;;;;;;4.97;4.43;;;10.80;99.90;;;;;;4953778;28;20799;-72
2023/03/24 01:29:00;;;;;;;3.93;3.57;;;10.80;99.90;;;;;;4963679;28;20591;-72
2023/03/24 01:31:28;;;;;;;4.70;4.00;;;10.80;99.90;;;;;;4973585;28;21057;-70
2023/03/24 01:33:56;;;;;;;4.40;3.70;;;10.80;99.90;;;;;;4956978;28;20544;-70
2023/03/24 01:36:26;;;;;;;4.43;3.57;;;10.80;99.90;;;;;;4974131;28;20526;-69
2023/03/24 01:38:54;;;;;;;5.13;4.50;;;10.80;99.90;;;;;;4984970;28;20488;-70
2023/03/24 01:41:22;;;;;;;4.23;3.70;;;10.80;99.90;;;;;;4980546;28;21076;-70
2023/03/24 01:43:50;;;;;;;4.40;3.87;;;10.80;99.90;;;;;;4985967;28;20511;-73
2023/03/24 01:46:20;;;;;;;4.13;3.73;;;10.80;99.90;;;;;;4988529;28;20523;-71
2023/03/24 01:48:51;;;;;;;4.30;3.97;;;10.80;99.90;;;;;;4987803;28;20500;-71
2023/03/24 01:51:24;;;;;;;4.10;3.70;;;10.80;99.90;;;;;;4982408;28;20476;-73
2023/03/24 01:53:57;;;;;;;8.40;4.30;;;10.70;99.90;;;;;;4988471;28;20485;-73
2023/03/24 01:56:27;;;;;;;6.03;5.20;;;10.70;99.90;;;;;;4989783;28;20511;-71
2023/03/24 01:58:59;;;;;;;4.20;3.60;;;10.70;99.90;;;;;;4982775;28;20473;-72
2023/03/24 02:01:29;;;;;;;7.73;4.10;;;10.60;99.90;;;;;;4981358;28;20509;-71
2023/03/24 02:03:58;;;;;;;3.87;3.47;;;10.60;99.90;;;;;;4983912;28;20493;-72
2023/03/24 02:06:27;;;;;;;5.00;4.00;;;10.60;99.90;;;;;;4987538;28;20461;-72
2023/03/24 02:09:00;;;;;;;3.93;3.53;;;10.60;99.90;;;;;;4992382;28;20563;-72
2023/03/24 02:11:30;;;;;;;4.87;3.90;;;10.60;99.90;;;;;;4977209;28;21008;-71
2023/03/24 02:13:58;;;;;;;4.60;3.67;;;10.60;99.90;;;;;;4978789;28;20490;-73
2023/03/24 02:16:49;;;;;;;4.30;3.70;;;10.60;99.90;;;;;;4984680;28;21251;-72
2023/03/24 02:19:52;;;;;;;5.60;4.50;;;10.60;99.90;;;;;;4984558;28;20499;-71
2023/03/24 02:23:00;;;;;;;6.87;4.60;;;10.60;99.90;;;;;;4953345;28;21143;-71
2023/03/24 02:25:53;;;;;;;5.80;4.30;;;10.60;99.90;;;;;;4975259;28;20473;-71
2023/03/24 02:28:35;;;;;;;5.13;3.73;;;10.60;99.90;;;;;;4970391;28;20894;-71
2023/03/24 02:31:23;;;;;;;5.60;4.03;;;10.60;99.90;;;;;;4975931;28;20497;-71
2023/03/24 02:34:16;;;;;;;4.70;4.13;;;10.60;99.90;;;;;;4975875;28;20513;-70
2023/03/24 02:37:09;;;;;;;4.30;3.37;;;10.60;99.90;;;;;;4928928;28;20505;-71
2023/03/24 02:39:52;;;;;;;5.73;3.77;;;10.50;99.90;;;;;;4986237;28;20489;-71
2023/03/24 02:42:29;;;;;;;4.37;3.80;;;10.50;99.90;;;;;;4986666;28;20481;-72
2023/03/24 02:45:09;;;;;;;4.40;4.00;;;10.50;99.90;;;;;;4989128;28;20832;-70
2023/03/24 02:47:44;;;;;;;3.97;3.57;;;10.50;99.90;;;;;;4980144;28;20477;-72
2023/03/24 02:50:21;;;;;;;4.43;4.03;;;10.50;99.90;;;;;;4986382;28;20496;-72
2023/03/24 02:52:58;;;;;;;5.33;3.80;;;10.50;99.90;;;;;;4980993;28;20484;-73
2023/03/24 02:55:35;;;;;;;4.80;4.20;;;10.50;99.90;;;;;;4984971;28;20473;-71
2023/03/24 02:58:07;;;;;;;4.73;3.90;;;10.50;99.90;;;;;;4984903;28;20468;-71
2023/03/24 03:00:40;;;;;;;5.10;3.97;;;10.50;99.90;;;;;;4987189;28;20484;-71
2023/03/24 03:03:13;;;;;;;3.90;3.47;;;10.50;99.90;;;;;;4983295;28;21817;-71
2023/03/24 03:05:46;;;;;;;5.13;4.07;;;10.50;99.90;;;;;;4980821;28;20477;-71
2023/03/24 03:08:17;;;;;;;5.07;4.20;;;10.50;99.90;;;;;;4980272;28;20477;-71
2023/03/24 03:10:48;;;;;;;4.63;4.20;;;10.50;99.90;;;;;;4985763;28;20880;-71
2023/03/24 03:13:23;;;;;;;4.73;4.07;;;10.50;99.90;;;;;;4978308;28;20508;-71
2023/03/24 03:15:54;;;;;;;5.33;4.47;;;10.50;99.90;;;;;;4984405;28;20523;-70
2023/03/24 03:18:27;;;;;;;7.57;4.07;;;10.50;99.90;;;;;;4984518;28;20469;-72
2023/03/24 03:21:00;;;;;;;4.37;3.97;;;10.50;99.90;;;;;;4982184;28;20580;-71
2023/03/24 03:23:34;;;;;;;4.17;3.80;;;10.50;99.90;;;;;;4985389;28;20635;-71
2023/03/24 03:26:08;;;;;;;5.07;4.17;;;10.50;99.90;;;;;;4986806;28;20465;-71
2023/03/24 03:28:42;;;;;;;5.23;4.13;;;10.50;99.90;;;;;;4976515;28;20477;-71
2023/03/24 03:31:15;;;;;;;5.40;4.00;;;10.50;99.90;;;;;;4984233;28;20500;-72
2023/03/24 03:33:50;;;;;;;5.33;4.20;;;10.50;99.90;;;;;;4986678;28;20485;-71
2023/03/24 03:36:25;;;;;;;4.80;4.23;;;10.50;99.90;;;;;;4982087;28;20498;-71
2023/03/24 03:39:01;;;;;;;4.70;4.30;;;10.50;99.90;;;;;;4979811;28;20483;-70
2023/03/24 03:41:30;;;;;;;4.50;4.00;;;10.50;99.90;;;;;;4986824;28;20476;-70
2023/03/24 03:43:59;;;;;;;4.40;3.87;;;10.50;99.90;;;;;;4978895;28;20500;-72
2023/03/24 03:46:27;;;;;;;4.40;4.00;;;10.50;99.90;;;;;;4974069;28;20970;-71
2023/03/24 03:48:55;;;;;;;4.87;3.97;;;10.50;99.90;;;;;;4977549;28;20469;-70
2023/03/24 03:51:23;;;;;;;6.73;4.43;;;10.60;99.90;;;;;;4981310;28;20473;-71
2023/03/24 03:53:54;;;;;;;5.07;4.57;;;10.60;99.90;;;;;;4983618;28;20869;-69
2023/03/24 03:56:24;;;;;;;5.87;4.60;;;10.60;99.90;;;;;;4985618;28;20492;-71
2023/03/24 03:58:54;;;;;;;4.97;4.47;;;10.60;99.90;;;;;;4978150;28;20470;-71
2023/03/24 04:01:25;;;;;;;5.43;4.47;;;10.60;99.90;;;;;;4980085;28;20489;-70
2023/03/24 04:04:20;;;;;;;5.20;4.60;;;10.60;99.90;;;;;;4981512;28;20500;-72
2023/03/24 04:06:57;;;;;;;5.80;5.30;;;10.70;99.90;;;;;;4977821;28;20596;-71
2023/03/24 04:09:36;;;;;;;5.07;4.57;;;10.70;99.90;;;;;;4984114;28;20508;-70
2023/03/24 04:12:35;;;;;;;5.00;4.60;;;10.70;99.90;;;;;;4983232;28;20505;-70
2023/03/24 04:15:34;;;;;;;5.30;4.63;;;10.80;99.90;;;;;;4976142;28;20492;-70
2023/03/24 04:18:32;;;;;;;5.57;5.07;;;10.80;99.90;;;;;;4974158;28;20504;-72
2023/03/24 04:21:27;;;;;;;4.80;4.30;;;10.90;99.90;;;;;;4944498;28;23456;-69
2023/03/24 04:24:05;;;;;;;5.73;4.60;;;10.90;99.90;;;;;;4961212;28;21182;-71
2023/03/24 04:26:40;;;;;;;5.70;5.30;;;11.00;99.90;;;;;;4955171;28;20492;-73
2023/03/24 04:29:16;;;;;;;4.97;4.57;;;11.00;99.90;;;;;;4958608;28;20473;-72
2023/03/24 04:31:52;;;;;;;5.03;4.57;;;11.00;99.90;;;;;;4952930;28;20477;-71
2023/03/24 04:34:24;;;;;;;5.30;4.77;;;11.10;99.90;;;;;;4957902;28;21034;-70
2023/03/24 04:36:56;;;;;;;5.30;4.90;;;11.10;99.90;;;;;;4955593;28;20585;-69
2023/03/24 04:39:27;;;;;;;5.50;5.10;;;11.20;99.90;;;;;;4955833;28;20513;-71
2023/03/24 04:41:57;;;;;;;5.40;5.00;;;11.10;99.90;;;;;;4950499;28;20485;-70
2023/03/24 04:44:26;;;;;;;7.40;5.10;;;11.20;99.90;;;;;;4961796;28;20482;-70
2023/03/24 04:46:59;;;;;;;5.40;4.90;;;11.20;99.90;;;;;;4958155;28;20466;-71
2023/03/24 04:49:27;;;;;;;4.77;4.37;;;11.20;99.90;;;;;;4966177;28;20498;-71
2023/03/24 04:51:55;;;;;;;4.60;4.20;;;11.30;99.90;;;;;;4964432;28;20854;-71
2023/03/24 04:54:24;;;;;;;4.40;4.00;;;11.30;99.90;;;;;;4968517;28;20485;-71
2023/03/24 04:56:54;;;;;;;5.53;5.03;;;11.30;99.90;;;;;;4968045;28;20508;-72
2023/03/24 04:59:22;;;;;;;4.73;4.43;;;11.30;99.90;;;;;;4963121;28;20589;-72
2023/03/24 05:01:50;;;;;;;5.50;5.00;;;11.30;99.90;;;;;;4961674;28;21006;-71
2023/03/24 05:04:21;;;;;;;5.07;4.67;;;11.30;99.90;;;;;;4967628;28;20473;-71
2023/03/24 05:06:49;;;;;;;5.73;5.07;;;11.30;99.90;;;;;;4958439;28;20465;-71
2023/03/24 05:09:20;;;;;;;6.07;5.10;;;11.30;99.90;;;;;;4949596;28;21505;-70
2023/03/24 05:11:48;;;;;;;5.60;4.90;;;11.20;99.90;;;;;;4951428;28;20853;-71
2023/03/24 05:14:16;;;;;;;5.43;5.03;;;11.20;99.90;;;;;;4952458;28;20493;-73
2023/03/24 05:16:44;;;;;;;4.93;4.53;;;11.20;99.90;;;;;;4957832;28;20477;-72
2023/03/24 05:19:13;;;;;;;6.17;5.57;;;11.20;99.90;;;;;;4957587;28;20691;-72
2023/03/24 05:21:42;;;;;;;5.43;5.03;;;11.30;99.90;;;;;;4958538;28;20477;-71
2023/03/24 05:24:11;;;;;;;5.20;4.80;;;11.30;99.90;;;;;;4961343;28;20485;-71
2023/03/24 05:26:39;;;;;;;5.73;5.30;;;11.30;99.90;;;;;;4958565;28;20484;-71
2023/03/24 05:29:07;;;;;;;5.10;4.70;;;11.30;99.90;;;;;;4962826;28;20477;-71
2023/03/24 05:31:35;;;;;;;5.80;5.30;;;11.30;99.90;;;;;;4959923;28;20471;-70
2023/03/24 05:34:02;;;;;;;5.03;4.63;;;11.30;99.90;;;;;;4964017;28;20462;-70
2023/03/24 05:36:31;;;;;;;5.60;5.10;;;11.30;99.90;;;;;;4957667;28;20470;-71
2023/03/24 05:39:00;;;;;;;4.73;4.33;;;11.40;99.90;;;;;;4960117;28;20489;-70
2023/03/24 05:41:28;;;;;;;5.20;4.80;;;11.40;99.90;;;;;;4955389;28;20500;-70
2023/03/24 05:43:56;;;;;;;5.00;4.60;;;11.50;99.90;;;;;;4953344;28;21006;-71
2023/03/24 05:46:24;;;;;;;5.40;5.00;;;11.50;99.90;;;;;;4958092;28;20476;-70
2023/03/24 05:48:53;;;;;;;5.00;4.60;;;11.50;99.90;;;;;;4955814;28;20501;-72
2023/03/24 05:51:21;;;;;;;5.80;5.23;;;11.50;99.90;;;;;;4960926;28;20466;-72
2023/03/24 05:53:50;;;;;;;5.23;4.83;;;11.50;99.90;;;;;;4964607;28;20486;-72
2023/03/24 05:56:20;;;;;;;5.13;4.83;;;11.50;99.90;;;;;;4963928;28;20484;-72
2023/03/24 05:58:48;;;;;;;5.23;4.83;;;11.50;99.90;;;;;;4960334;28;20493;-72
2023/03/24 06:01:17;;;;;;;5.60;5.10;;;11.50;99.90;;;;;;4956044;28;20531;-71
2023/03/24 06:03:45;;;;;;;5.70;5.20;;;11.60;99.90;;;;;;4967372;28;20911;-73
2023/03/24 06:06:15;;;;;;;6.10;5.60;;;11.60;99.90;;;;;;4965858;28;20477;-72
2023/03/24 06:08:44;;;;;;;5.03;4.73;;;11.60;99.90;;;;;;4963719;28;20476;-72
2023/03/24 06:11:12;;;;;;;5.03;4.73;;;11.60;99.90;;;;;;4948326;28;20501;-72
2023/03/24 06:13:42;;;;;;;5.03;4.63;;;11.60;99.90;;;;;;4948738;28;20596;-71
2023/03/24 06:16:10;;;;;;;5.53;5.03;;;11.60;99.90;;;;;;4948178;28;20866;-72
2023/03/24 06:18:41;;;;;;;5.13;4.73;;;11.60;99.90;;;;;;4933978;28;21423;-71
2023/03/24 06:21:09;;;;;;;5.00;4.60;;;11.60;99.90;;;;;;4941328;28;20501;-73
2023/03/24 06:23:37;;;;;;;5.67;5.27;;;11.60;99.90;;;;;;4960783;28;20501;-71
2023/03/24 06:26:10;;;;;;;5.10;4.70;;;11.60;99.90;;;;;;4950786;28;20783;-71
2023/03/24 06:28:38;;;;;;;5.23;4.83;;;11.70;99.90;;;;;;4947795;28;20583;-72
2023/03/24 06:31:13;;;;;;;5.17;4.67;;;11.70;99.90;;;;;;4935623;28;21466;-73
2023/03/24 06:33:42;;;;;;;5.67;4.97;;;11.70;99.90;;;;;;4950308;28;20500;-71
2023/03/24 06:36:11;;;;;;;4.93;4.60;;;11.70;99.90;;;;;;4931852;28;20474;-71
2023/03/24 06:38:40;;;;;;;4.40;4.10;;;11.70;99.90;;;;;;4929946;28;21077;-70
2023/03/24 06:41:09;;;;;;;4.90;4.50;;;11.70;99.90;;;;;;4944884;28;21030;-70
2023/03/24 06:43:37;;;;;;;4.30;3.90;;;11.80;99.90;;;;;;4948065;28;20575;-73
2023/03/24 06:46:06;;;;;;;4.33;3.93;;;11.80;99.90;;;;;;4947827;28;20474;-69
2023/03/24 06:48:35;;;;;;;4.53;4.13;;;11.80;99.90;;;;;;4959173;28;20470;-71
2023/03/24 06:51:03;;;;;;;4.70;4.30;;;11.80;99.90;;;;;;4949705;28;20489;-72
2023/03/24 06:53:31;;;;;;;4.90;4.50;;;11.80;99.90;;;;;;4966695;28;21020;-70
2023/03/24 06:55:59;;;;;;;4.37;3.97;;;11.80;99.90;;;;;;4981949;28;20481;-71
2023/03/24 06:58:27;;;;;;;4.43;4.10;;;11.80;99.90;;;;;;4968389;28;20620;-70
2023/03/24 07:00:56;;;;;;;5.00;4.60;;;11.90;99.90;;;;;;4968251;28;20619;-71
2023/03/24 07:03:24;;;;;;;4.73;4.37;;;11.90;99.90;;;;;;4963925;28;20501;-71
2023/03/24 07:05:54;;;;;;;4.70;4.40;;;11.90;99.90;;;;;;4962473;28;20598;-71
2023/03/24 07:08:22;;;;;;;3.87;3.63;;;12.00;99.90;;;;;;4973574;28;20478;-71
2023/03/24 07:11:07;;;;;;;4.13;3.83;;;12.00;99.90;;;;;;4966750;28;20505;-71
2023/03/24 07:13:35;;;;;;;4.00;3.70;;;12.00;99.90;;;;;;4951882;28;20918;-71
2023/03/24 07:16:04;;;;;;;3.57;3.30;;;12.00;99.90;;;;;;4947500;28;20493;-71
2023/03/24 07:18:32;;;;;;;3.40;3.10;;;12.00;99.90;;;;;;4948167;28;21782;-70
2023/03/24 07:21:01;;;;;;;3.93;3.10;;;12.00;99.90;;;;;;4952642;28;20843;-72
2023/03/24 07:23:29;;;;;;;2.90;2.70;;;11.90;99.90;;;;;;4949382;28;20490;-70
2023/03/24 07:25:57;;;;;;;3.13;2.93;;;11.90;99.90;;;;;;4960696;28;20959;-71
2023/03/24 07:28:26;;;;;;;3.33;3.03;;;11.90;99.90;;;;;;4959486;28;20482;-71
2023/03/24 07:30:53;;;;;;;3.10;2.90;;;12.00;99.90;;;;;;4951189;28;21082;-72
2023/03/24 07:33:23;;;;;;;3.47;2.60;;;12.00;99.90;;;;;;4963059;28;21033;-72
2023/03/24 07:35:55;;;;;;;2.97;2.73;;;12.00;99.90;;;;;;4962456;28;20473;-72
2023/03/24 07:38:24;;;;;;;2.50;2.40;;;12.00;99.90;;;;;;4965495;28;21031;-71
2023/03/24 07:40:52;;;;;;;2.23;2.03;;;12.00;99.90;;;;;;4968429;28;20498;-72
2023/03/24 07:43:20;;;;;;;2.10;1.80;;;12.00;99.90;;;;;;4954726;28;20533;-71
2023/03/24 07:45:48;;;;;;;2.13;1.60;;;12.00;99.90;;;;;;4954484;28;20474;-71
2023/03/24 07:48:20;;;;;;;2.20;2.00;;;12.00;99.90;;;;;;4955204;28;20484;-71
2023/03/24 07:50:47;;;;;;;3.37;2.00;;;12.00;99.90;;;;;;4956831;28;20574;-71
2023/03/24 07:53:18;;;;;;;2.50;1.80;;;11.90;99.90;;;;;;4965002;28;21137;-72
2023/03/24 07:55:48;;;;;;;2.20;2.00;;;11.90;99.90;;;;;;4962370;28;20779;-71
2023/03/24 07:58:17;;;;;;;2.93;1.90;;;11.90;99.90;;;;;;4962081;28;20513;-71
2023/03/24 08:00:45;;;;;;;2.93;1.73;;;11.90;99.90;;;;;;4952760;28;20498;-72
2023/03/24 08:03:14;;;;;;;1.77;1.60;;;11.80;99.90;;;;;;4952655;28;20495;-71
2023/03/24 08:05:44;;;;;;;3.40;1.40;;;11.80;99.90;;;;;;4941073;28;20478;-72
2023/03/24 08:08:12;;;;;;;3.43;1.80;;;11.80;99.90;;;;;;4955372;28;21269;-72
2023/03/24 08:10:41;;;;;;;4.10;1.60;;;11.80;99.90;;;;;;4955138;28;20513;-72
2023/03/24 08:13:10;;;;;;;5.20;1.57;;;11.80;99.90;;;;;;4963680;28;20548;-71
2023/03/24 08:15:39;;;;;;;3.40;1.93;;;11.70;99.90;;;;;;4959737;28;20472;-72
2023/03/24 08:18:07;;;;;;;5.47;1.70;;;11.70;99.90;;;;;;4957229;28;20488;-72
2023/03/24 08:20:35;;;;;;;4.97;1.60;;;11.70;99.90;;;;;;4951131;28;20594;-72
2023/03/24 08:23:03;;;;;;;3.13;1.50;;;11.70;99.90;;;;;;4941587;28;20497;-72
2023/03/24 08:25:32;;;;;;;3.37;1.57;;;11.80;99.90;;;;;;4962466;28;20482;-73
2023/03/24 08:28:00;;;;;;;4.57;1.90;;;11.80;99.90;;;;;;4949451;28;20493;-73
2023/03/24 08:30:29;;;;;;;2.90;2.10;;;11.90;99.90;;;;;;4962384;28;20564;-72
2023/03/24 08:32:59;;;;;;;8.30;2.20;;;11.90;99.90;;;;;;4949057;28;21164;-73
2023/03/24 08:35:30;;;;;;;2.97;1.60;;;12.00;99.90;;;;;;4951027;28;20473;-73
2023/03/24 08:37:59;;;;;;;2.10;1.40;;;12.00;99.90;;;;;;4957426;28;20506;-73
2023/03/24 08:40:30;;;;;;;3.30;1.83;;;11.90;99.90;;;;;;4960554;28;20591;-72
2023/03/24 08:43:00;;;;;;;4.03;1.90;;;11.90;99.90;;;;;;4958011;28;20497;-73
2023/03/24 08:45:31;;;;;;;5.20;1.70;;;11.90;99.90;;;;;;4958814;28;20470;-73
2023/03/24 08:48:01;;;;;;;4.10;1.97;;;11.90;99.90;;;;;;4962485;28;20840;-73
2023/03/24 08:50:33;;;;;;;5.07;2.00;;;12.00;99.90;;;;;;4960116;28;21235;-73
2023/03/24 08:53:03;;;;;;;3.30;1.80;;;12.00;99.90;;;;;;4963880;28;20496;-73
2023/03/24 08:55:31;;;;;;;2.50;1.70;;;12.10;99.90;;;;;;4958388;28;20498;-72
2023/03/24 08:58:00;;;;;;;2.33;1.60;;;12.10;99.90;;;;;;4964533;28;20478;-72
2023/03/24 09:00:30;;;;;;;4.40;1.87;;;12.10;99.90;;;;;;4960918;28;20497;-73
2023/03/24 09:02:59;;;;;;;2.67;1.30;;;12.10;99.90;;;;;;4938987;28;20895;-72
2023/03/24 09:05:28;;;;;;;4.40;1.73;;;12.10;99.90;;;;;;4951101;28;20472;-72
2023/03/24 09:08:12;;;;;;;4.73;1.43;;;12.20;99.90;;;;;;4949008;28;20555;-73
2023/03/24 09:10:40;;;;;;;6.17;1.97;;;12.30;99.90;;;;;;4952680;28;20532;-72
2023/03/24 09:13:08;;;;;;;3.53;1.73;;;12.30;99.90;;;;;;4957312;28;20490;-73
2023/03/24 09:15:38;;;;;;;2.37;1.67;;;12.40;99.90;;;;;;4959478;28;20470;-72
2023/03/24 09:18:06;;;;;;;3.67;1.83;;;12.40;99.90;;;;;;4956460;28;20478;-72
2023/03/24 09:20:34;;;;;;;6.40;2.50;;;12.30;99.90;;;;;;4957234;28;20920;-71
2023/03/24 09:23:02;;;;;;;5.03;2.30;;;12.30;99.90;;;;;;4959183;28;20493;-72
2023/03/24 09:25:30;;;;;;;5.33;1.93;;;12.40;99.90;;;;;;4952341;28;20983;-73
2023/03/24 09:27:59;;;;;;;5.03;2.30;;;12.40;99.90;;;;;;4947921;28;20883;-72
2023/03/24 09:30:27;;;;;;;3.33;1.50;;;12.30;99.90;;;;;;4951580;28;20497;-72
2023/03/24 09:32:59;;;;;;;3.30;1.63;;;12.30;99.90;;;;;;4948658;28;20493;-72
2023/03/24 09:35:28;;;;;;;2.80;1.57;;;12.40;99.90;;;;;;4949489;28;20485;-72
2023/03/24 09:37:57;;;;;;;3.03;1.60;;;12.40;99.90;;;;;;4956176;28;20485;-72
2023/03/24 09:40:26;;;;;;;4.00;1.97;;;12.50;99.90;;;;;;4951725;28;20512;-72
2023/03/24 09:43:00;;;;;;;4.80;1.90;;;12.50;99.90;;;;;;4945989;28;20531;-73
2023/03/24 09:45:32;;;;;;;5.50;1.87;;;12.50;99.90;;;;;;4955301;28;20474;-72
2023/03/24 09:48:05;;;;;;;7.30;2.17;;;12.50;99.90;;;;;;4952804;28;20500;-72
2023/03/24 09:50:36;;;;;;;5.33;1.70;;;12.40;99.90;;;;;;4956428;28;20489;-71
2023/03/24 09:53:09;;;;;;;4.10;1.87;;;12.40;99.90;;;;;;4950961;28;20489;-72
2023/03/24 09:55:41;;;;;;;4.37;1.90;;;12.40;99.90;;;;;;4953192;28;20473;-72
2023/03/24 09:58:13;;;;;;;5.10;1.80;;;12.40;99.90;;;;;;4946414;28;20859;-73
2023/03/24 10:00:42;;;;;;;4.77;2.00;;;12.40;99.90;;;;;;4945739;28;20508;-73
2023/03/24 10:03:19;;;;;;;2.90;1.47;;;12.40;99.90;;;;;;4951858;28;20500;-71
2023/03/24 10:05:53;;;;;;;3.63;1.70;;;12.40;99.90;;;;;;4945586;28;21008;-72
2023/03/24 10:08:28;;;;;;;4.43;2.97;;;12.40;99.90;;;;;;4957558;28;21015;-72
2023/03/24 10:11:03;;;;;;;4.40;1.90;;;12.40;99.90;;;;;;4958078;28;20617;-73
2023/03/24 10:13:43;;;;;;;8.50;2.10;;;12.40;99.90;;;;;;4943098;28;20498;-73
2023/03/24 10:16:18;;;;;;;2.10;1.73;;;12.40;99.90;;;;;;4946311;28;20482;-72
2023/03/24 10:18:54;;;;;;;4.60;2.23;;;12.50;99.90;;;;;;4952927;28;20949;-73
2023/03/24 10:21:26;;;;;;;6.03;2.10;;;12.60;99.90;;;;;;4960535;28;20504;-72
2023/03/24 10:24:02;;;;;;;3.87;1.67;;;12.70;99.90;;;;;;4973520;28;20496;-72
2023/03/24 10:26:42;;;;;;;4.47;1.70;;;12.70;99.90;;;;;;4985261;28;21073;-72
2023/03/24 10:29:21;;;;;;;3.47;2.07;;;12.80;99.90;;;;;;4982290;28;20531;-72
2023/03/24 10:31:54;;;;;;;4.00;2.03;;;12.80;99.90;;;;;;4982892;28;20899;-72
2023/03/24 10:34:28;;;;;;;4.10;1.80;;;12.90;99.90;;;;;;4967178;28;20592;-72
2023/03/24 10:36:57;;;;;;;5.50;2.30;;;13.00;99.90;;;;;;4979377;28;20472;-73
2023/03/24 10:39:26;;;;;;;4.03;1.60;;;13.00;99.90;;;;;;4973289;28;20598;-73
2023/03/24 10:42:15;;;;;;;3.17;1.80;;;13.10;99.90;;;;;;4976519;28;20495;-72
2023/03/24 10:44:45;;;;;;;4.37;1.57;;;13.00;99.90;;;;;;4979718;28;20473;-71
2023/03/24 10:47:14;;;;;;;3.03;1.80;;;13.00;99.90;;;;;;4973100;28;20988;-72
2023/03/24 10:49:54;;;;;;;3.40;1.47;;;13.00;99.90;;;;;;4967025;28;20588;-71
2023/03/24 10:52:24;;;;;;;2.23;1.60;;;13.10;99.90;;;;;;4964157;28;20519;-71
2023/03/24 10:54:57;;;;;;;3.70;1.50;;;13.10;99.90;;;;;;4962440;28;20480;-71
2023/03/24 10:57:27;;;;;;;2.37;1.33;;;13.20;99.90;;;;;;4971354;28;20489;-71
2023/03/24 10:59:58;;;;;;;5.27;1.80;;;13.30;99.90;;;;;;4972255;28;20489;-72
2023/03/24 11:02:30;;;;;;;3.67;1.60;;;13.40;99.90;;;;;;4961506;28;21013;-72
2023/03/24 11:05:02;;;;;;;4.37;1.60;;;13.50;99.90;;;;;;4965242;28;21001;-72
2023/03/24 11:07:35;;;;;;;5.30;1.97;;;13.60;99.90;;;;;;4966190;28;20871;-72
2023/03/24 11:10:07;;;;;;;4.57;1.70;;;13.80;99.90;;;;;;4966583;28;20503;-72
2023/03/24 11:12:37;;;;;;;4.70;1.87;;;13.90;99.90;;;;;;4962647;28;21032;-72
2023/03/24 11:15:17;;;;;;;5.67;1.90;;;14.00;99.90;;;;;;4969108;28;20978;-71
2023/03/24 11:17:54;;;;;;;3.13;1.97;;;14.20;99.90;;;;;;4969813;28;21002;-72
2023/03/24 11:20:30;;;;;;;4.50;1.50;;;14.20;99.90;;;;;;4967548;28;20504;-71
2023/03/24 11:23:04;;;;;;;5.30;2.00;;;14.20;99.90;;;;;;4967734;28;20579;-71
2023/03/24 11:25:33;;;;;;;2.70;1.80;;;14.10;99.90;;;;;;4972318;28;21006;-71
2023/03/24 11:28:05;;;;;;;4.23;2.00;;;14.10;99.90;;;;;;4964510;28;20477;-71
2023/03/24 11:30:35;;;;;;;3.67;1.70;;;14.10;99.90;;;;;;4967566;28;20497;-71
2023/03/24 11:33:05;;;;;;;7.77;2.17;;;14.30;99.90;;;;;;4976335;28;20534;-71
2023/03/24 11:35:39;;;;;;;4.57;1.60;;;14.40;99.90;;;;;;4963322;28;20581;-71
2023/03/24 11:38:30;;;;;;;5.03;1.60;;;14.60;99.90;;;;;;4967900;28;20531;-71
2023/03/24 11:41:01;;;;;;;5.00;1.93;;;14.60;99.90;;;;;;4969223;28;20505;-71
2023/03/24 11:43:29;;;;;;;3.30;1.77;;;14.70;99.90;;;;;;4962941;28;21028;-72
2023/03/24 11:46:01;;;;;;;2.33;1.30;;;14.70;99.90;;;;;;4960388;28;20480;-72
2023/03/24 11:48:37;;;;;;;3.07;1.60;;;14.90;99.90;;;;;;4969674;28;20469;-72
2023/03/24 11:51:11;;;;;;;2.40;1.37;;;15.10;99.90;;;;;;4971638;28;20512;-72
2023/03/24 11:53:46;;;;;;;4.27;1.73;;;15.00;99.90;;;;;;4968194;28;20902;-72
2023/03/24 11:56:23;;;;;;;3.90;1.60;;;15.00;99.90;;;;;;4975793;28;21069;-72
2023/03/24 11:58:56;;;;;;;5.83;2.00;;;14.80;99.90;;;;;;4959845;28;21116;-72
2023/03/24 12:01:30;;;;;;;4.80;1.80;;;14.80;99.90;;;;;;4972250;28;20504;-71
2023/03/24 12:04:07;;;;;;;3.83;1.70;;;14.70;99.90;;;;;;4965364;28;21073;-71
2023/03/24 12:06:54;;;;;;;5.07;1.80;;;14.80;99.90;;;;;;4975038;28;20962;-71
2023/03/24 12:09:30;;;;;;;3.57;1.57;;;15.00;99.90;;;;;;4978520;28;20512;-71
2023/03/24 12:12:14;;;;;;;6.27;2.00;;;15.10;99.90;;;;;;4978360;28;20912;-72
2023/03/24 12:14:54;;;;;;;4.13;2.00;;;15.30;99.90;;;;;;4959787;28;20486;-71
2023/03/24 12:17:26;;;;;;;6.77;2.27;;;15.50;99.90;;;;;;4963267;28;20845;-71
2023/03/24 12:20:17;;;;;;;7.00;2.03;;;15.70;99.90;;;;;;4954567;28;20610;-71
2023/03/24 12:22:59;;;;;;;5.43;2.93;;;15.90;99.90;;;;;;4952662;28;21012;-71
2023/03/24 12:25:42;;;;;;;6.73;2.40;;;16.10;99.90;;;;;;4935307;28;20481;-70
2023/03/24 12:28:24;;;;;;;5.53;1.90;;;16.20;99.90;;;;;;4931550;28;20932;-71
2023/03/24 12:31:02;;;;;;;3.50;1.83;;;16.30;99.90;;;;;;4942501;28;20490;-71
2023/03/24 12:33:40;;;;;;;5.20;2.40;;;16.40;99.90;;;;;;4952602;28;20513;-70
2023/03/24 12:36:20;;;;;;;5.17;2.07;;;16.50;99.90;;;;;;4956377;28;20482;-71
2023/03/24 12:39:03;;;;;;;5.03;2.40;;;16.60;99.90;;;;;;4953941;28;20481;-71
2023/03/24 12:41:50;;;;;;;5.17;2.67;;;16.90;99.90;;;;;;4955048;28;20494;-72
2023/03/24 12:44:36;;;;;;;6.20;2.43;;;17.10;99.90;;;;;;4955734;28;20482;-72
2023/03/24 12:47:18;;;;;;;5.33;1.70;;;17.40;99.90;;;;;;4961817;28;20470;-71
2023/03/24 12:50:04;;;;;;;4.07;2.03;;;17.50;99.90;;;;;;4956277;28;20519;-71
2023/03/24 12:52:55;;;;;;;4.70;1.87;;;17.80;99.90;;;;;;4955434;28;20520;-71
2023/03/24 12:55:43;;;;;;;4.43;1.70;;;18.20;99.90;;;;;;4956966;28;20577;-71
2023/03/24 12:58:16;;;;;;;4.03;2.07;;;18.90;99.90;;;;;;4957007;28;20477;-71
2023/03/24 13:00:54;;;;;;;5.57;2.33;;;19.40;99.90;;;;;;4961932;28;20501;-71
2023/03/24 13:03:29;;;;;;;4.30;2.00;;;20.00;99.90;;;;;;4949240;28;20494;-74
2023/03/24 13:06:05;;;;;;;4.80;1.77;;;21.10;97.10;;;;;;4955153;28;20473;-74
2023/03/24 13:08:54;;;;;;;6.00;2.13;;;22.20;84.50;;;;;;4953120;28;20466;-73
2023/03/24 13:11:35;;;;;;;3.00;1.90;;;23.50;67.40;;;;;;4957688;28;20481;-71
2023/03/24 13:14:10;;;;;;;6.73;1.90;;;24.40;55.00;;;;;;4953252;28;20489;-71
2023/03/24 13:16:40;;;;;;;4.93;2.17;;;25.00;52.70;;;;;;4960341;28;20500;-72